sensor_id;sensor_type;location;lat;lon;timestamp;temperature;humidity
7648;DHT22;3866;48.020;11.720;2023-04-10T00:01:51;0.70;99.90
7648;DHT22;3866;48.020;11.720;2023-04-10T00:04:18;0.60;99.90
7648;DHT22;3866;48.020;11.720;2023-04-10T00:06:46;0.70;99.90
7648;DHT22;3866;48.020;11.720;2023-04-10T00:09:15;0.70;99.90
7648;DHT22;3866;48.020;11.720;2023-04-10T00:11:42;0.80;99.90
7648;DHT22;3866;48.020;11.720;2023-04-10T00:14:09;0.60;99.90
7648;DHT22;3866;48.020;11.720;2023-04-10T00:16:36;0.50;99.90
7648;DHT22;3866;48.020;11.720;2023-04-10T00:19:02;0.70;99.90
7648;DHT22;3866;48.020;11.720;2023-04-10T00:21:29;0.80;99.90
7648;DHT22;3866;48.020;11.720;2023-04-10T00:23:56;1.00;99.90
7648;DHT22;3866;48.020;11.720;2023-04-10T00:26:25;1.00;99.90
7648;DHT22;3866;48.020;11.720;2023-04-10T00:28:52;1.00;99.90
7648;DHT22;3866;48.020;11.720;2023-04-10T00:31:19;1.00;99.90
7648;DHT22;3866;48.020;11.720;2023-04-10T00:33:45;1.00;99.90
7648;DHT22;3866;48.020;11.720;2023-04-10T00:36:12;1.00;99.90
7648;DHT22;3866;48.020;11.720;2023-04-10T00:38:40;0.90;99.90
7648;DHT22;3866;48.020;11.720;2023-04-10T00:41:07;0.90;99.90
7648;DHT22;3866;48.020;11.720;2023-04-10T00:43:35;1.00;99.90
7648;DHT22;3866;48.020;11.720;2023-04-10T00:46:03;0.80;99.90
7648;DHT22;3866;48.020;11.720;2023-04-10T00:48:31;0.70;99.90
7648;DHT22;3866;48.020;11.720;2023-04-10T00:50:58;0.70;99.90
7648;DHT22;3866;48.020;11.720;2023-04-10T00:53:26;0.60;99.90
7648;DHT22;3866;48.020;11.720;2023-04-10T00:55:54;0.60;99.90
7648;DHT22;3866;48.020;11.720;2023-04-10T00:58:21;0.60;99.90
7648;DHT22;3866;48.020;11.720;2023-04-10T01:00:50;0.70;99.90
7648;DHT22;3866;48.020;11.720;2023-04-10T01:03:18;0.50;99.90
7648;DHT22;3866;48.020;11.720;2023-04-10T01:05:51;0.40;99.90
7648;DHT22;3866;48.020;11.720;2023-04-10T01:08:27;0.30;99.90
7648;DHT22;3866;48.020;11.720;2023-04-10T01:11:02;0.30;99.90
7648;DHT22;3866;48.020;11.720;2023-04-10T01:13:37;0.40;99.90
7648;DHT22;3866;48.020;11.720;2023-04-10T01:16:11;0.40;99.90
7648;DHT22;3866;48.020;11.720;2023-04-10T01:18:47;0.40;99.90
7648;DHT22;3866;48.020;11.720;2023-04-10T01:21:16;0.40;99.90
7648;DHT22;3866;48.020;11.720;2023-04-10T01:23:55;0.30;99.90
7648;DHT22;3866;48.020;11.720;2023-04-10T01:26:38;0.30;99.90
7648;DHT22;3866;48.020;11.720;2023-04-10T01:29:09;0.30;99.90
7648;DHT22;3866;48.020;11.720;2023-04-10T01:31:41;0.40;99.90
7648;DHT22;3866;48.020;11.720;2023-04-10T01:34:16;0.40;99.90
7648;DHT22;3866;48.020;11.720;2023-04-10T01:36:49;0.30;99.90
7648;DHT22;3866;48.020;11.720;2023-04-10T01:39:18;0.30;99.90
7648;DHT22;3866;48.020;11.720;2023-04-10T01:41:47;0.30;99.90
7648;DHT22;3866;48.020;11.720;2023-04-10T01:44:20;0.20;99.90
7648;DHT22;3866;48.020;11.720;2023-04-10T01:46:52;0.20;99.90
7648;DHT22;3866;48.020;11.720;2023-04-10T01:49:20;0.00;99.90
7648;DHT22;3866;48.020;11.720;2023-04-10T01:51:49;-0.20;99.90
7648;DHT22;3866;48.020;11.720;2023-04-10T01:54:16;-0.30;99.90
7648;DHT22;3866;48.020;11.720;2023-04-10T01:56:43;-0.40;99.90
7648;DHT22;3866;48.020;11.720;2023-04-10T01:59:10;-0.60;99.90
7648;DHT22;3866;48.020;11.720;2023-04-10T02:01:39;-0.70;99.90
7648;DHT22;3866;48.020;11.720;2023-04-10T02:04:06;-0.80;99.90
7648;DHT22;3866;48.020;11.720;2023-04-10T02:06:40;-0.80;99.90
7648;DHT22;3866;48.020;11.720;2023-04-10T02:09:16;-0.80;99.90
7648;DHT22;3866;48.020;11.720;2023-04-10T02:11:48;-0.80;99.90
7648;DHT22;3866;48.020;11.720;2023-04-10T02:14:19;-0.80;99.90
7648;DHT22;3866;48.020;11.720;2023-04-10T02:16:52;-0.80;99.90
7648;DHT22;3866;48.020;11.720;2023-04-10T02:19:20;-0.80;99.90
7648;DHT22;3866;48.020;11.720;2023-04-10T02:21:48;-0.80;99.90
7648;DHT22;3866;48.020;11.720;2023-04-10T02:24:16;-0.80;99.90
7648;DHT22;3866;48.020;11.720;2023-04-10T02:26:44;-0.70;99.90
7648;DHT22;3866;48.020;11.720;2023-04-10T02:29:11;-0.60;99.90
7648;DHT22;3866;48.020;11.720;2023-04-10T02:31:39;-0.60;99.90
7648;DHT22;3866;48.020;11.720;2023-04-10T02:34:07;-0.50;99.90
7648;DHT22;3866;48.020;11.720;2023-04-10T02:36:35;-0.40;99.90
7648;DHT22;3866;48.020;11.720;2023-04-10T02:39:02;-0.30;99.90
7648;DHT22;3866;48.020;11.720;2023-04-10T02:41:29;-0.30;99.90
7648;DHT22;3866;48.020;11.720;2023-04-10T02:43:56;-0.20;99.90
7648;DHT22;3866;48.020;11.720;2023-04-10T02:46:23;-0.20;99.90
7648;DHT22;3866;48.020;11.720;2023-04-10T02:48:51;-0.30;99.90
7648;DHT22;3866;48.020;11.720;2023-04-10T02:51:19;-0.10;99.90
7648;DHT22;3866;48.020;11.720;2023-04-10T02:53:46;-0.30;99.90
7648;DHT22;3866;48.020;11.720;2023-04-10T02:56:13;-0.40;99.90
7648;DHT22;3866;48.020;11.720;2023-04-10T02:58:40;-0.50;99.90
7648;DHT22;3866;48.020;11.720;2023-04-10T03:01:10;-0.50;99.90
7648;DHT22;3866;48.020;11.720;2023-04-10T03:03:37;-0.50;99.90
7648;DHT22;3866;48.020;11.720;2023-04-10T03:06:05;-0.50;99.90
7648;DHT22;3866;48.020;11.720;2023-04-10T03:08:33;-0.50;99.90
7648;DHT22;3866;48.020;11.720;2023-04-10T03:11:00;-0.50;99.90
7648;DHT22;3866;48.020;11.720;2023-04-10T03:13:27;-0.40;99.90
7648;DHT22;3866;48.020;11.720;2023-04-10T03:15:54;-0.40;99.90
7648;DHT22;3866;48.020;11.720;2023-04-10T03:18:21;-0.30;99.90
7648;DHT22;3866;48.020;11.720;2023-04-10T03:20:48;-0.30;99.90
7648;DHT22;3866;48.020;11.720;2023-04-10T03:23:15;-0.40;99.90
7648;DHT22;3866;48.020;11.720;2023-04-10T03:25:43;-0.40;99.90
7648;DHT22;3866;48.020;11.720;2023-04-10T03:28:10;-0.60;99.90
7648;DHT22;3866;48.020;11.720;2023-04-10T03:30:37;-0.70;99.90
7648;DHT22;3866;48.020;11.720;2023-04-10T03:33:04;-0.80;99.90
7648;DHT22;3866;48.020;11.720;2023-04-10T03:35:31;-0.90;99.90
7648;DHT22;3866;48.020;11.720;2023-04-10T03:37:58;-1.00;99.90
7648;DHT22;3866;48.020;11.720;2023-04-10T03:40:25;-1.10;99.90
7648;DHT22;3866;48.020;11.720;2023-04-10T03:42:53;-1.10;99.90
7648;DHT22;3866;48.020;11.720;2023-04-10T03:45:20;-1.20;99.90
7648;DHT22;3866;48.020;11.720;2023-04-10T03:47:47;-1.20;99.90
7648;DHT22;3866;48.020;11.720;2023-04-10T03:50:14;-1.20;99.90
7648;DHT22;3866;48.020;11.720;2023-04-10T03:52:41;-1.20;99.90
7648;DHT22;3866;48.020;11.720;2023-04-10T03:55:08;-1.00;99.90
7648;DHT22;3866;48.020;11.720;2023-04-10T03:57:35;-1.00;99.90
7648;DHT22;3866;48.020;11.720;2023-04-10T04:00:04;-1.00;99.90
7648;DHT22;3866;48.020;11.720;2023-04-10T04:02:31;-1.00;99.90
7648;DHT22;3866;48.020;11.720;2023-04-10T04:04:58;-1.00;99.90
7648;DHT22;3866;48.020;11.720;2023-04-10T04:07:25;-1.00;99.90
7648;DHT22;3866;48.020;11.720;2023-04-10T04:09:51;-1.10;99.90
7648;DHT22;3866;48.020;11.720;2023-04-10T04:12:19;-1.10;99.90
7648;DHT22;3866;48.020;11.720;2023-04-10T04:14:46;-1.00;99.90
7648;DHT22;3866;48.020;11.720;2023-04-10T04:17:14;-0.80;99.90
7648;DHT22;3866;48.020;11.720;2023-04-10T04:19:41;-0.60;99.90
7648;DHT22;3866;48.020;11.720;2023-04-10T04:22:08;-0.60;99.90
7648;DHT22;3866;48.020;11.720;2023-04-10T04:24:35;-0.70;99.90
7648;DHT22;3866;48.020;11.720;2023-04-10T04:27:02;-0.80;99.90
7648;DHT22;3866;48.020;11.720;2023-04-10T04:29:29;-0.80;99.90
7648;DHT22;3866;48.020;11.720;2023-04-10T04:31:56;-0.70;99.90
7648;DHT22;3866;48.020;11.720;2023-04-10T04:34:24;-0.70;99.90
7648;DHT22;3866;48.020;11.720;2023-04-10T04:36:51;-0.70;99.90
7648;DHT22;3866;48.020;11.720;2023-04-10T04:39:18;-0.70;99.90
7648;DHT22;3866;48.020;11.720;2023-04-10T04:41:47;-0.70;99.90
7648;DHT22;3866;48.020;11.720;2023-04-10T04:44:14;-0.70;99.90
7648;DHT22;3866;48.020;11.720;2023-04-10T04:46:40;-0.80;99.90
7648;DHT22;3866;48.020;11.720;2023-04-10T04:49:07;-0.80;99.90
7648;DHT22;3866;48.020;11.720;2023-04-10T04:51:36;-0.80;99.90
7648;DHT22;3866;48.020;11.720;2023-04-10T04:54:03;-0.80;99.90
7648;DHT22;3866;48.020;11.720;2023-04-10T04:56:30;-0.80;99.90
7648;DHT22;3866;48.020;11.720;2023-04-10T04:58:57;-0.80;99.90
7648;DHT22;3866;48.020;11.720;2023-04-10T05:01:23;-0.70;99.90
7648;DHT22;3866;48.020;11.720;2023-04-10T05:03:50;-0.70;99.90
7648;DHT22;3866;48.020;11.720;2023-04-10T05:06:17;-0.60;99.90
7648;DHT22;3866;48.020;11.720;2023-04-10T05:08:46;-0.60;99.90
7648;DHT22;3866;48.020;11.720;2023-04-10T05:11:13;-0.50;99.90
7648;DHT22;3866;48.020;11.720;2023-04-10T05:13:40;-0.50;99.90
7648;DHT22;3866;48.020;11.720;2023-04-10T05:16:07;-0.40;99.90
7648;DHT22;3866;48.020;11.720;2023-04-10T05:18:34;-0.30;99.90
7648;DHT22;3866;48.020;11.720;2023-04-10T05:21:01;-0.10;99.90
7648;DHT22;3866;48.020;11.720;2023-04-10T05:23:28;0.00;99.90
7648;DHT22;3866;48.020;11.720;2023-04-10T05:25:56;0.00;99.90
7648;DHT22;3866;48.020;11.720;2023-04-10T05:28:23;0.20;99.90
7648;DHT22;3866;48.020;11.720;2023-04-10T05:30:50;0.30;99.90
7648;DHT22;3866;48.020;11.720;2023-04-10T05:33:17;0.30;99.90
7648;DHT22;3866;48.020;11.720;2023-04-10T05:35:45;0.40;99.90
7648;DHT22;3866;48.020;11.720;2023-04-10T05:38:12;0.60;99.90
7648;DHT22;3866;48.020;11.720;2023-04-10T05:40:39;0.90;99.90
7648;DHT22;3866;48.020;11.720;2023-04-10T05:43:07;1.40;99.90
7648;DHT22;3866;48.020;11.720;2023-04-10T05:45:34;1.90;99.90
7648;DHT22;3866;48.020;11.720;2023-04-10T05:48:01;2.10;99.90
7648;DHT22;3866;48.020;11.720;2023-04-10T05:50:28;2.10;99.90
7648;DHT22;3866;48.020;11.720;2023-04-10T05:52:54;2.10;99.90
7648;DHT22;3866;48.020;11.720;2023-04-10T05:55:21;2.30;99.90
7648;DHT22;3866;48.020;11.720;2023-04-10T05:57:48;2.70;99.90
7648;DHT22;3866;48.020;11.720;2023-04-10T06:00:17;3.20;99.90
7648;DHT22;3866;48.020;11.720;2023-04-10T06:02:44;3.50;99.90
7648;DHT22;3866;48.020;11.720;2023-04-10T06:05:11;4.20;99.90
7648;DHT22;3866;48.020;11.720;2023-04-10T06:07:38;4.80;99.90
7648;DHT22;3866;48.020;11.720;2023-04-10T06:10:06;5.50;99.90
7648;DHT22;3866;48.020;11.720;2023-04-10T06:12:33;6.10;99.90
7648;DHT22;3866;48.020;11.720;2023-04-10T06:15:00;7.30;99.90
7648;DHT22;3866;48.020;11.720;2023-04-10T06:17:29;7.90;99.90
7648;DHT22;3866;48.020;11.720;2023-04-10T06:19:55;8.20;99.90
7648;DHT22;3866;48.020;11.720;2023-04-10T06:22:25;8.50;99.90
7648;DHT22;3866;48.020;11.720;2023-04-10T06:24:53;7.80;99.90
7648;DHT22;3866;48.020;11.720;2023-04-10T06:27:20;10.00;99.90
7648;DHT22;3866;48.020;11.720;2023-04-10T06:29:46;12.30;99.90
7648;DHT22;3866;48.020;11.720;2023-04-10T06:32:13;10.00;99.90
7648;DHT22;3866;48.020;11.720;2023-04-10T06:34:42;9.60;99.90
7648;DHT22;3866;48.020;11.720;2023-04-10T06:37:09;10.90;99.90
7648;DHT22;3866;48.020;11.720;2023-04-10T06:39:36;13.90;99.90
7648;DHT22;3866;48.020;11.720;2023-04-10T06:42:03;14.40;99.90
7648;DHT22;3866;48.020;11.720;2023-04-10T06:44:30;14.50;99.90
7648;DHT22;3866;48.020;11.720;2023-04-10T06:46:57;15.80;99.90
7648;DHT22;3866;48.020;11.720;2023-04-10T06:49:24;13.70;99.90
7648;DHT22;3866;48.020;11.720;2023-04-10T06:51:52;14.10;99.90
7648;DHT22;3866;48.020;11.720;2023-04-10T06:54:19;14.60;99.90
7648;DHT22;3866;48.020;11.720;2023-04-10T06:56:46;16.30;99.90
7648;DHT22;3866;48.020;11.720;2023-04-10T06:59:13;17.50;99.90
7648;DHT22;3866;48.020;11.720;2023-04-10T07:01:40;17.00;99.90
7648;DHT22;3866;48.020;11.720;2023-04-10T07:04:07;16.70;99.90
7648;DHT22;3866;48.020;11.720;2023-04-10T07:06:34;18.40;99.90
7648;DHT22;3866;48.020;11.720;2023-04-10T07:09:02;18.50;99.90
7648;DHT22;3866;48.020;11.720;2023-04-10T07:11:29;18.30;99.90
7648;DHT22;3866;48.020;11.720;2023-04-10T07:13:56;15.90;99.90
7648;DHT22;3866;48.020;11.720;2023-04-10T07:16:23;14.90;99.90
7648;DHT22;3866;48.020;11.720;2023-04-10T07:18:50;14.90;99.90
7648;DHT22;3866;48.020;11.720;2023-04-10T07:21:17;15.50;99.90
7648;DHT22;3866;48.020;11.720;2023-04-10T07:23:44;16.20;99.90
7648;DHT22;3866;48.020;11.720;2023-04-10T07:26:13;16.50;99.90
7648;DHT22;3866;48.020;11.720;2023-04-10T07:28:41;14.70;99.90
7648;DHT22;3866;48.020;11.720;2023-04-10T07:31:07;14.60;99.90
7648;DHT22;3866;48.020;11.720;2023-04-10T07:33:35;15.20;99.90
7648;DHT22;3866;48.020;11.720;2023-04-10T07:36:03;14.50;99.90
7648;DHT22;3866;48.020;11.720;2023-04-10T07:38:31;13.90;99.90
7648;DHT22;3866;48.020;11.720;2023-04-10T07:40:58;14.20;99.90
7648;DHT22;3866;48.020;11.720;2023-04-10T07:43:26;15.10;99.90
7648;DHT22;3866;48.020;11.720;2023-04-10T07:45:55;15.30;99.90
7648;DHT22;3866;48.020;11.720;2023-04-10T07:48:22;15.60;99.90
7648;DHT22;3866;48.020;11.720;2023-04-10T07:50:49;15.80;99.90
7648;DHT22;3866;48.020;11.720;2023-04-10T07:53:16;16.30;99.90
7648;DHT22;3866;48.020;11.720;2023-04-10T07:55:44;15.00;99.90
7648;DHT22;3866;48.020;11.720;2023-04-10T07:58:13;14.50;99.90
7648;DHT22;3866;48.020;11.720;2023-04-10T08:00:41;13.90;99.90
7648;DHT22;3866;48.020;11.720;2023-04-10T08:03:09;12.80;99.90
7648;DHT22;3866;48.020;11.720;2023-04-10T08:05:36;12.70;99.90
7648;DHT22;3866;48.020;11.720;2023-04-10T08:08:03;13.80;99.90
7648;DHT22;3866;48.020;11.720;2023-04-10T08:10:30;14.80;99.90
7648;DHT22;3866;48.020;11.720;2023-04-10T08:13:00;14.90;99.90
7648;DHT22;3866;48.020;11.720;2023-04-10T08:15:27;14.20;99.90
7648;DHT22;3866;48.020;11.720;2023-04-10T08:17:55;14.20;99.90
7648;DHT22;3866;48.020;11.720;2023-04-10T08:20:22;14.70;99.90
7648;DHT22;3866;48.020;11.720;2023-04-10T08:22:49;14.80;99.90
7648;DHT22;3866;48.020;11.720;2023-04-10T08:25:16;14.90;99.90
7648;DHT22;3866;48.020;11.720;2023-04-10T08:27:43;14.50;99.90
7648;DHT22;3866;48.020;11.720;2023-04-10T08:30:10;15.70;99.90
7648;DHT22;3866;48.020;11.720;2023-04-10T08:32:38;15.90;99.90
7648;DHT22;3866;48.020;11.720;2023-04-10T08:35:07;15.60;99.90
7648;DHT22;3866;48.020;11.720;2023-04-10T08:37:34;14.50;99.90
7648;DHT22;3866;48.020;11.720;2023-04-10T08:40:01;14.10;99.90
7648;DHT22;3866;48.020;11.720;2023-04-10T08:42:29;13.30;99.90
7648;DHT22;3866;48.020;11.720;2023-04-10T08:44:56;13.80;99.90
7648;DHT22;3866;48.020;11.720;2023-04-10T08:47:26;14.00;99.90
7648;DHT22;3866;48.020;11.720;2023-04-10T08:49:56;14.10;99.90
7648;DHT22;3866;48.020;11.720;2023-04-10T08:52:25;12.90;99.90
7648;DHT22;3866;48.020;11.720;2023-04-10T08:54:56;12.60;99.90
7648;DHT22;3866;48.020;11.720;2023-04-10T08:57:25;12.10;99.90
7648;DHT22;3866;48.020;11.720;2023-04-10T08:59:52;12.00;99.90
7648;DHT22;3866;48.020;11.720;2023-04-10T09:02:20;12.00;99.90
7648;DHT22;3866;48.020;11.720;2023-04-10T09:04:49;11.60;99.90
7648;DHT22;3866;48.020;11.720;2023-04-10T09:07:16;11.30;99.90
7648;DHT22;3866;48.020;11.720;2023-04-10T09:09:45;11.40;99.90
7648;DHT22;3866;48.020;11.720;2023-04-10T09:12:12;12.40;99.90
7648;DHT22;3866;48.020;11.720;2023-04-10T09:14:40;12.90;99.90
7648;DHT22;3866;48.020;11.720;2023-04-10T09:17:15;13.10;99.90
7648;DHT22;3866;48.020;11.720;2023-04-10T09:19:44;12.70;99.90
7648;DHT22;3866;48.020;11.720;2023-04-10T09:22:11;12.20;99.90
7648;DHT22;3866;48.020;11.720;2023-04-10T09:24:39;11.60;99.90
7648;DHT22;3866;48.020;11.720;2023-04-10T09:27:08;11.50;99.90
7648;DHT22;3866;48.020;11.720;2023-04-10T09:29:42;11.60;99.90
7648;DHT22;3866;48.020;11.720;2023-04-10T09:32:10;12.40;99.90
7648;DHT22;3866;48.020;11.720;2023-04-10T09:34:53;12.60;99.90
7648;DHT22;3866;48.020;11.720;2023-04-10T09:37:21;13.10;99.90
7648;DHT22;3866;48.020;11.720;2023-04-10T09:39:48;13.40;99.90
7648;DHT22;3866;48.020;11.720;2023-04-10T09:42:29;12.80;99.90
7648;DHT22;3866;48.020;11.720;2023-04-10T09:44:57;12.90;99.90
7648;DHT22;3866;48.020;11.720;2023-04-10T09:47:24;12.30;99.90
7648;DHT22;3866;48.020;11.720;2023-04-10T09:49:53;12.50;99.90
7648;DHT22;3866;48.020;11.720;2023-04-10T09:52:21;12.80;99.90
7648;DHT22;3866;48.020;11.720;2023-04-10T09:54:49;12.70;99.90
7648;DHT22;3866;48.020;11.720;2023-04-10T09:57:19;12.80;99.90
7648;DHT22;3866;48.020;11.720;2023-04-10T09:59:48;13.30;99.90
7648;DHT22;3866;48.020;11.720;2023-04-10T10:02:17;13.00;99.90
7648;DHT22;3866;48.020;11.720;2023-04-10T10:04:44;12.80;99.90
7648;DHT22;3866;48.020;11.720;2023-04-10T10:07:13;12.50;99.90
7648;DHT22;3866;48.020;11.720;2023-04-10T10:09:41;12.10;99.90
7648;DHT22;3866;48.020;11.720;2023-04-10T10:12:09;12.30;99.90
7648;DHT22;3866;48.020;11.720;2023-04-10T10:14:51;12.40;99.90
7648;DHT22;3866;48.020;11.720;2023-04-10T10:17:21;12.30;99.90
7648;DHT22;3866;48.020;11.720;2023-04-10T10:19:58;12.40;99.90
7648;DHT22;3866;48.020;11.720;2023-04-10T10:22:26;12.60;99.90
7648;DHT22;3866;48.020;11.720;2023-04-10T10:24:55;12.80;99.90
7648;DHT22;3866;48.020;11.720;2023-04-10T10:27:24;13.20;99.90
7648;DHT22;3866;48.020;11.720;2023-04-10T10:29:53;12.80;99.90
7648;DHT22;3866;48.020;11.720;2023-04-10T10:32:21;12.60;99.90
7648;DHT22;3866;48.020;11.720;2023-04-10T10:34:51;12.80;99.90
7648;DHT22;3866;48.020;11.720;2023-04-10T10:37:19;12.80;99.90
7648;DHT22;3866;48.020;11.720;2023-04-10T10:39:55;12.90;99.90
7648;DHT22;3866;48.020;11.720;2023-04-10T10:42:29;13.30;99.90
7648;DHT22;3866;48.020;11.720;2023-04-10T10:45:08;13.40;99.90
7648;DHT22;3866;48.020;11.720;2023-04-10T10:47:42;13.70;99.90
7648;DHT22;3866;48.020;11.720;2023-04-10T10:50:11;13.60;99.90
7648;DHT22;3866;48.020;11.720;2023-04-10T10:52:44;13.10;99.90
7648;DHT22;3866;48.020;11.720;2023-04-10T10:55:30;13.00;99.90
7648;DHT22;3866;48.020;11.720;2023-04-10T10:58:00;13.00;99.90
7648;DHT22;3866;48.020;11.720;2023-04-10T11:01:04;13.20;99.90
7648;DHT22;3866;48.020;11.720;2023-04-10T11:03:31;12.90;99.90
7648;DHT22;3866;48.020;11.720;2023-04-10T11:05:59;12.60;99.90
7648;DHT22;3866;48.020;11.720;2023-04-10T11:08:41;12.60;99.90
7648;DHT22;3866;48.020;11.720;2023-04-10T11:11:15;12.90;99.90
7648;DHT22;3866;48.020;11.720;2023-04-10T11:14:12;13.50;99.90
7648;DHT22;3866;48.020;11.720;2023-04-10T11:16:45;13.80;99.90
7648;DHT22;3866;48.020;11.720;2023-04-10T11:19:12;14.20;99.90
7648;DHT22;3866;48.020;11.720;2023-04-10T11:22:01;14.10;99.90
7648;DHT22;3866;48.020;11.720;2023-04-10T11:24:29;14.00;99.90
7648;DHT22;3866;48.020;11.720;2023-04-10T11:26:56;13.60;99.90
7648;DHT22;3866;48.020;11.720;2023-04-10T11:29:32;13.60;99.90
7648;DHT22;3866;48.020;11.720;2023-04-10T11:32:02;13.80;99.90
7648;DHT22;3866;48.020;11.720;2023-04-10T11:34:30;13.70;99.90
7648;DHT22;3866;48.020;11.720;2023-04-10T11:36:58;13.90;99.90
7648;DHT22;3866;48.020;11.720;2023-04-10T11:39:26;13.50;99.90
7648;DHT22;3866;48.020;11.720;2023-04-10T11:41:53;13.80;99.90
7648;DHT22;3866;48.020;11.720;2023-04-10T11:44:28;14.10;99.90
7648;DHT22;3866;48.020;11.720;2023-04-10T11:46:55;14.20;99.90
7648;DHT22;3866;48.020;11.720;2023-04-10T11:49:25;14.30;99.90
7648;DHT22;3866;48.020;11.720;2023-04-10T11:51:53;14.70;99.90
7648;DHT22;3866;48.020;11.720;2023-04-10T11:54:22;15.00;99.90
7648;DHT22;3866;48.020;11.720;2023-04-10T11:56:57;14.50;99.90
7648;DHT22;3866;48.020;11.720;2023-04-10T11:59:24;14.20;99.90
7648;DHT22;3866;48.020;11.720;2023-04-10T12:01:53;14.70;99.90
7648;DHT22;3866;48.020;11.720;2023-04-10T12:04:21;14.70;99.90
7648;DHT22;3866;48.020;11.720;2023-04-10T12:06:50;14.80;99.90
7648;DHT22;3866;48.020;11.720;2023-04-10T12:09:19;14.50;99.90
7648;DHT22;3866;48.020;11.720;2023-04-10T12:11:50;14.60;99.90
7648;DHT22;3866;48.020;11.720;2023-04-10T12:14:18;15.10;99.90
7648;DHT22;3866;48.020;11.720;2023-04-10T12:16:45;15.70;99.90
7648;DHT22;3866;48.020;11.720;2023-04-10T12:19:13;15.70;99.90
7648;DHT22;3866;48.020;11.720;2023-04-10T12:21:41;15.60;99.90
7648;DHT22;3866;48.020;11.720;2023-04-10T12:24:09;15.80;99.90
7648;DHT22;3866;48.020;11.720;2023-04-10T12:26:37;16.00;99.90
7648;DHT22;3866;48.020;11.720;2023-04-10T12:29:04;16.80;99.90
7648;DHT22;3866;48.020;11.720;2023-04-10T12:31:33;16.70;99.90
7648;DHT22;3866;48.020;11.720;2023-04-10T12:34:02;16.70;99.90
7648;DHT22;3866;48.020;11.720;2023-04-10T12:36:31;16.80;99.90
7648;DHT22;3866;48.020;11.720;2023-04-10T12:39:00;17.20;99.90
7648;DHT22;3866;48.020;11.720;2023-04-10T12:41:31;17.20;99.90
7648;DHT22;3866;48.020;11.720;2023-04-10T12:44:08;17.00;99.90
7648;DHT22;3866;48.020;11.720;2023-04-10T12:46:36;17.20;99.90
7648;DHT22;3866;48.020;11.720;2023-04-10T12:49:14;17.20;99.90
7648;DHT22;3866;48.020;11.720;2023-04-10T12:51:45;17.00;99.90
7648;DHT22;3866;48.020;11.720;2023-04-10T12:54:27;17.20;99.90
7648;DHT22;3866;48.020;11.720;2023-04-10T12:56:56;18.10;99.90
7648;DHT22;3866;48.020;11.720;2023-04-10T12:59:23;18.40;99.90
7648;DHT22;3866;48.020;11.720;2023-04-10T13:01:51;17.80;99.90
7648;DHT22;3866;48.020;11.720;2023-04-10T13:04:17;17.60;99.90
7648;DHT22;3866;48.020;11.720;2023-04-10T13:06:45;17.10;99.90
7648;DHT22;3866;48.020;11.720;2023-04-10T13:09:13;17.40;99.90
7648;DHT22;3866;48.020;11.720;2023-04-10T13:11:40;16.70;99.90
7648;DHT22;3866;48.020;11.720;2023-04-10T13:14:09;16.70;99.90
7648;DHT22;3866;48.020;11.720;2023-04-10T13:16:37;16.60;99.90
7648;DHT22;3866;48.020;11.720;2023-04-10T13:19:04;16.30;99.90
7648;DHT22;3866;48.020;11.720;2023-04-10T13:21:31;15.60;99.90
7648;DHT22;3866;48.020;11.720;2023-04-10T13:23:57;15.50;99.90
7648;DHT22;3866;48.020;11.720;2023-04-10T13:26:24;15.20;99.90
7648;DHT22;3866;48.020;11.720;2023-04-10T13:28:51;14.80;99.90
7648;DHT22;3866;48.020;11.720;2023-04-10T13:31:20;14.80;99.90
7648;DHT22;3866;48.020;11.720;2023-04-10T13:33:47;14.50;99.90
7648;DHT22;3866;48.020;11.720;2023-04-10T13:36:14;14.60;99.90
7648;DHT22;3866;48.020;11.720;2023-04-10T13:38:41;14.90;99.90
7648;DHT22;3866;48.020;11.720;2023-04-10T13:41:08;14.90;99.90
7648;DHT22;3866;48.020;11.720;2023-04-10T13:43:35;14.80;99.90
7648;DHT22;3866;48.020;11.720;2023-04-10T13:46:02;14.80;99.90
7648;DHT22;3866;48.020;11.720;2023-04-10T13:48:30;14.90;99.90
7648;DHT22;3866;48.020;11.720;2023-04-10T13:50:57;14.90;99.90
7648;DHT22;3866;48.020;11.720;2023-04-10T13:53:24;14.80;99.90
7648;DHT22;3866;48.020;11.720;2023-04-10T13:55:51;15.00;99.90
7648;DHT22;3866;48.020;11.720;2023-04-10T13:58:18;14.90;99.90
7648;DHT22;3866;48.020;11.720;2023-04-10T14:00:46;15.00;99.90
7648;DHT22;3866;48.020;11.720;2023-04-10T14:03:13;14.90;99.90
7648;DHT22;3866;48.020;11.720;2023-04-10T14:05:41;15.00;99.90
7648;DHT22;3866;48.020;11.720;2023-04-10T14:08:10;14.70;99.90
7648;DHT22;3866;48.020;11.720;2023-04-10T14:10:40;14.70;99.90
7648;DHT22;3866;48.020;11.720;2023-04-10T14:13:07;15.00;99.90
7648;DHT22;3866;48.020;11.720;2023-04-10T14:15:36;15.00;99.90
7648;DHT22;3866;48.020;11.720;2023-04-10T14:18:02;15.00;99.90
7648;DHT22;3866;48.020;11.720;2023-04-10T14:20:29;15.10;99.90
7648;DHT22;3866;48.020;11.720;2023-04-10T14:22:58;14.90;99.90
7648;DHT22;3866;48.020;11.720;2023-04-10T14:25:24;14.90;99.90
7648;DHT22;3866;48.020;11.720;2023-04-10T14:27:51;14.90;99.90
7648;DHT22;3866;48.020;11.720;2023-04-10T14:30:18;14.70;99.90
7648;DHT22;3866;48.020;11.720;2023-04-10T14:32:45;14.80;99.90
7648;DHT22;3866;48.020;11.720;2023-04-10T14:35:12;15.00;99.90
7648;DHT22;3866;48.020;11.720;2023-04-10T14:37:39;14.80;99.90
7648;DHT22;3866;48.020;11.720;2023-04-10T14:40:09;14.70;99.90
7648;DHT22;3866;48.020;11.720;2023-04-10T14:42:36;14.50;99.90
7648;DHT22;3866;48.020;11.720;2023-04-10T14:45:03;14.40;99.90
7648;DHT22;3866;48.020;11.720;2023-04-10T14:47:30;14.50;99.90
7648;DHT22;3866;48.020;11.720;2023-04-10T14:49:57;14.50;99.90
7648;DHT22;3866;48.020;11.720;2023-04-10T14:52:24;14.30;99.90
7648;DHT22;3866;48.020;11.720;2023-04-10T14:54:51;14.30;99.90
7648;DHT22;3866;48.020;11.720;2023-04-10T14:57:19;14.40;99.90
7648;DHT22;3866;48.020;11.720;2023-04-10T14:59:46;14.40;99.90
7648;DHT22;3866;48.020;11.720;2023-04-10T15:02:13;14.50;99.90
7648;DHT22;3866;48.020;11.720;2023-04-10T15:04:41;14.60;99.90
7648;DHT22;3866;48.020;11.720;2023-04-10T15:07:08;14.60;99.90
7648;DHT22;3866;48.020;11.720;2023-04-10T15:09:34;14.60;99.90
7648;DHT22;3866;48.020;11.720;2023-04-10T15:12:01;14.40;99.90
7648;DHT22;3866;48.020;11.720;2023-04-10T15:14:30;14.20;99.90
7648;DHT22;3866;48.020;11.720;2023-04-10T15:16:56;14.10;99.90
7648;DHT22;3866;48.020;11.720;2023-04-10T15:19:23;14.00;99.90
7648;DHT22;3866;48.020;11.720;2023-04-10T15:21:50;14.00;99.90
7648;DHT22;3866;48.020;11.720;2023-04-10T15:24:17;14.30;99.90
7648;DHT22;3866;48.020;11.720;2023-04-10T15:26:45;14.10;99.90
7648;DHT22;3866;48.020;11.720;2023-04-10T15:29:12;14.00;99.90
7648;DHT22;3866;48.020;11.720;2023-04-10T15:31:40;14.10;99.90
7648;DHT22;3866;48.020;11.720;2023-04-10T15:34:07;14.20;99.90
7648;DHT22;3866;48.020;11.720;2023-04-10T15:36:34;14.20;99.90
7648;DHT22;3866;48.020;11.720;2023-04-10T15:39:01;14.00;99.90
7648;DHT22;3866;48.020;11.720;2023-04-10T15:41:28;14.10;99.90
7648;DHT22;3866;48.020;11.720;2023-04-10T15:43:56;14.20;99.90
7648;DHT22;3866;48.020;11.720;2023-04-10T15:46:23;14.10;99.90
7648;DHT22;3866;48.020;11.720;2023-04-10T15:48:51;14.10;99.90
7648;DHT22;3866;48.020;11.720;2023-04-10T15:51:19;14.10;99.90
7648;DHT22;3866;48.020;11.720;2023-04-10T15:53:46;13.90;99.90
7648;DHT22;3866;48.020;11.720;2023-04-10T15:56:13;13.90;99.90
7648;DHT22;3866;48.020;11.720;2023-04-10T15:58:40;13.70;99.90